Forecasts are only available for sites displaying the forecast symbol.

Scroll for more >

River gauges, storages, and weirs in the Murray–Darling Basin

Type Locationsort descending River Water level Flow Volume Release Water temp Salinity Rainfall
River Gauge Albury (Union Bridge) Murray 2.21 m 20/11/2018 22:30 Not measured Not measured Not measured 18.1°C 20/11/2018 22:30 41.8 μS/cm 20/11/2018 22:30 Not measured Full data
River Gauge Balranald Murrumbidgee 0.91 m 20/11/2018 21:45 500 ML/Day 20/11/2018 21:45 Not measured Not measured 23.2°C 20/11/2018 21:45 76.9 μS/cm 20/11/2018 21:45 Not measured Full data
River Gauge Bandiana Kiewa 1.41 m 20/11/2018 21:45 1044 ML/Day 20/11/2018 21:45 Not measured Not measured 19.6°C 20/11/2018 21:45 15.6 μS/cm 20/11/2018 21:45 Not measured Full data
River Gauge Barmah Choke Murray 3.16 m 20/11/2018 21:45 10318 ML/Day 20/11/2018 21:45 Not measured Not measured Not measured Not measured Not measured Full data
River Gauge Biggara Murray 0.43 m 20/11/2018 22:30 467 ML/Day 20/11/2018 22:30 Not measured Not measured 20.3°C 20/11/2018 22:30 47.6 μS/cm 20/11/2018 22:30 0.0 mm 20/11/2018 9:00 Full data
River Gauge Bringenbrong Bridge Murray 1.17 m 20/11/2018 22:30 1907 ML/Day 20/11/2018 22:30 Not measured Not measured Not measured Not measured Not measured Full data
River Gauge Burtundy Darling 0.62 m 20/11/2018 22:15 17 ML/Day 24/09/2018 14:45 Not measured Not measured 22.7°C 20/11/2018 22:15 830.2 μS/cm 20/11/2018 22:15 Not measured Full data
River Gauge Colemans Mitta 2.7 m 20/11/2018 23:00 8858 ML/Day 20/11/2018 23:00 Not measured Not measured 10.1°C 20/11/2018 21:45 45.4 μS/cm 20/11/2018 21:45 Not measured Full data
River Gauge Colignan Murray 2.6 m 20/11/2018 21:45 11198 ML/Day 20/11/2018 21:45 Not measured Not measured 23.3°C 20/11/2018 21:45 66.5 μS/cm 20/11/2018 21:45 Not measured Full data
River Gauge Corowa Murray 3.32 m 20/11/2018 22:30 16602 ML/Day 20/11/2018 22:30 Not measured Not measured 19.5°C 20/11/2018 22:30 39.3 μS/cm 20/11/2018 22:30 Not measured Full data
Storage Dartmouth Dam Mitta 471.02 m 20/11/2018 23:00 Not measured 2949 GL 20/11/2018 23:00 Not measured Not measured Not measured Not measured Full data
River Gauge Doctors Point Murray 3.17 m 20/11/2018 22:30 17204 ML/Day 20/11/2018 22:30 Not measured Not measured 17.9°C 20/11/2018 22:30 73.4 μS/cm 20/11/2018 22:30 Not measured Full data
River Gauge Echuca Wharf Murray 87.49 m 20/11/2018 19:45 Not measured Not measured Not measured Not measured Not measured Not measured Full data
River Gauge Edward Escape Wakool 0.62 m 20/11/2018 21:45 461 ML/Day 20/11/2018 21:45 Not measured Not measured 22.6°C 20/11/2018 21:45 53.9 μS/cm 20/11/2018 21:45 Not measured Full data
River Gauge Edward River Offtake Murray 2.4 m 20/11/2018 21:45 1565 ML/Day 20/11/2018 21:45 Not measured Not measured 22.5°C 20/11/2018 21:45 37.2 μS/cm 20/11/2018 21:45 Not measured Full data
Weirs Euston Weir Downstream Murray 43.93 m 20/11/2018 21:45 11509 ML/Day 20/11/2018 21:45 Not measured Not measured 23.1°C 20/11/2018 21:45 67.1 μS/cm 20/11/2018 21:45 Not measured Full data
Weirs Euston Weir Upstream Murray 47.57 m 20/11/2018 7:45 Not measured 36 GL 20/11/2018 7:45 Not measured Not measured Not measured 0.0 mm 19/11/2018 9:00 Full data
River Gauge Flow to South Australia Murray Not measured Not measured Not measured 5533.3 ML/d20/11/2018 7:45 Not measured Not measured Not measured Full data
River Gauge Frenchman Creek Murray 27.15 m 20/11/2018 7:45 Not measured Not measured 5584.0 ML/d20/11/2018 7:45 Not measured Not measured Not measured Full data
River Gauge Gulpa Creek Offtake Murray 2.92 m 20/11/2018 21:45 585 ML/Day 20/11/2018 21:45 Not measured Not measured Not measured Not measured Not measured Full data
River Gauge Hinnomunjie Mitta 0.65 m 20/11/2018 21:45 387 ML/Day 20/11/2018 21:45 Not measured Not measured 17.9°C 20/11/2018 21:45 28.3 μS/cm 20/11/2018 21:45 0.0 mm 20/11/2018 9:00 Full data
Storage Hume Dam Murray 181.61 m 20/11/2018 22:30 Not measured 1325 GL 20/11/2018 22:30 15412.0 ML/d20/11/2018 8:00 Not measured Not measured 0.0 mm 20/11/2018 9:00 Full data
River Gauge Jingellic Murray 1.5 m 20/11/2018 21:45 3068 ML/Day 20/11/2018 21:45 Not measured Not measured 22.2°C 20/11/2018 21:45 30.8 μS/cm 20/11/2018 21:45 0.0 mm 20/11/2018 9:00 Full data
River Gauge Kerang Loddon 0.37 m 20/11/2018 21:45 172 ML/Day 20/11/2018 21:45 Not measured Not measured 21.4°C 20/11/2018 21:45 106.5 μS/cm 20/11/2018 21:45 Not measured Full data
River Gauge Lake Albert Murray 0.69 m 20/11/2018 5:45 Not measured 261 GL 20/11/2018 5:45 Not measured Not measured Not measured Not measured Full data
River Gauge Lake Alexandrina Murray 0.71 m 20/11/2018 5:45 Not measured 1588 GL 20/11/2018 5:45 Not measured Not measured 919.5 μS/cm 20/11/2018 21:45 Not measured Full data
Storage Lake Victoria Murray 25.82 m 20/11/2018 21:45 Not measured 538 GL 20/11/2018 21:45 Not measured 20.6°C 20/11/2018 21:45 158.1 μS/cm 20/11/2018 21:45 Not measured Full data
Weirs Lock 1 Downstream Murray 0.75 m 20/11/2018 21:45 Not measured Not measured 3199.5 ML/d20/11/2018 7:45 Not measured Not measured Not measured Full data
Weirs Lock 1 Upstream Murray 3.28 m 20/11/2018 21:45 Not measured Not measured Not measured 21.3°C 20/11/2018 21:45 304.4 μS/cm 20/11/2018 21:45 Not measured Full data
Weirs Lock 2 Downstream Murray 3.38 m 20/11/2018 21:45 Not measured Not measured Not measured Not measured Not measured Not measured Full data
Weirs Lock 2 Upstream Murray 6.12 m 20/11/2018 21:45 Not measured Not measured Not measured 21.9°C 20/11/2018 21:45 239.2 μS/cm 20/11/2018 21:45 Not measured Full data
Weirs Lock 3 Downstream Murray 6.27 m 20/11/2018 21:45 Not measured Not measured Not measured Not measured Not measured Not measured Full data
Weirs Lock 3 Upstream Murray 9.81 m 20/11/2018 21:45 Not measured Not measured Not measured Not measured Not measured Not measured Full data
Weirs Lock 4 Downstream Murray 10.32 m 20/11/2018 21:45 Not measured Not measured Not measured Not measured Not measured Not measured Full data
Weirs Lock 4 Upstream Murray 13.23 m 20/11/2018 21:45 Not measured Not measured Not measured Not measured Not measured Not measured Full data
Weirs Lock 5 Downstream Murray 13.35 m 20/11/2018 21:45 Not measured Not measured Not measured Not measured Not measured Not measured Full data
Weirs Lock 5 Upstream Murray 16.32 m 20/11/2018 21:45 Not measured Not measured Not measured 22.5°C 20/11/2018 21:45 153.8 μS/cm 20/11/2018 21:45 Not measured Full data
Weirs Lock 6 Downstream Murray 16.35 m 20/11/2018 21:45 Not measured Not measured Not measured Not measured Not measured Not measured Full data
Weirs Lock 6 Upstream Murray 19.25 m 20/11/2018 21:45 Not measured Not measured Not measured 22.4°C 20/11/2018 21:45 124.4 μS/cm 20/11/2018 21:45 Not measured Full data
Weirs Lock 7 Downstream Murray 20.15 m 20/11/2018 21:45 Not measured Not measured Not measured Not measured Not measured Not measured Full data
Weirs Lock 7 Upstream Murray 22.41 m 20/11/2018 21:45 Not measured Not measured Not measured 23.0°C 20/11/2018 21:45 95.1 μS/cm 20/11/2018 21:45 Not measured Full data
Weirs Lock 8 Upstream Murray 24.1 m 20/11/2018 21:45 Not measured Not measured Not measured 22.8°C 20/11/2018 21:45 82.2 μS/cm 20/11/2018 21:45 Not measured Full data
Weirs Lock 9 Downstream Murray 24.16 m 20/11/2018 21:45 Not measured Not measured Not measured Not measured Not measured Not measured Full data
Weirs Lock 9 Upstream Murray 27.32 m 20/11/2018 21:45 Not measured Not measured Not measured 23.1°C 20/11/2018 21:45 87.4 μS/cm 20/11/2018 21:45 Not measured Full data
River Gauge McCoy Bridge Goulburn 1.42 m 20/11/2018 21:45 833 ML/Day 20/11/2018 21:45 Not measured Not measured 22.9°C 20/11/2018 21:45 80.7 μS/cm 20/11/2018 21:45 Not measured Full data
Storage Menindee Lakes Darling Not measured Not measured 114 GL 20/11/2018 7:45 Not measured Not measured Not measured Not measured Full data
Weirs Mildura Weir downstream Murray 31.23 m 20/11/2018 21:45 Not measured Not measured Not measured 23.2°C 20/11/2018 21:45 77.0 μS/cm 20/11/2018 21:45 Not measured Full data
River Gauge Morgan Downstream Murray Not measured Not measured Not measured 2937.8 ML/d20/11/2018 21:45 Not measured 287.4 μS/cm 20/11/2018 21:45 Not measured Full data
River Gauge Mulwala Canal Murray Not measured Not measured Not measured 1623.4 ML/d20/11/2018 7:45 Not measured Not measured Not measured Full data
River Gauge Mundoo Barrage Murray 0.63 m 20/11/2018 7:45 Not measured Not measured Not measured Not measured Not measured Not measured Full data
River Gauge Murray Bridge Murray 0.69 m 20/11/2018 21:45 Not measured Not measured Not measured 20.3°C 20/11/2018 21:45 359.4 μS/cm 20/11/2018 21:45 Not measured Full data
River Gauge Peechelba Ovens 126.58 m 20/11/2018 21:45 659 ML/Day 20/11/2018 21:45 Not measured Not measured 22.0°C 20/11/2018 21:45 49.3 μS/cm 20/11/2018 21:45 Not measured Full data
River Gauge Pinegrove Murray 1.11 m 20/11/2018 22:30 235 ML/Day 20/11/2018 22:30 Not measured Not measured 21.9°C 20/11/2018 22:30 62.2 μS/cm 20/11/2018 22:30 0.0 mm 20/11/2018 9:00 Full data
River Gauge Redcliffs Murray Not measured Not measured Not measured Not measured Not measured 75.1 μS/cm 20/11/2018 21:45 Not measured Full data
River Gauge Rochester Campaspe 1.75 m 20/11/2018 21:45 108 ML/Day 20/11/2018 21:45 Not measured Not measured 22.6°C 20/11/2018 21:45 564.6 μS/cm 20/11/2018 21:45 0.0 mm 20/11/2018 9:00 Full data
River Gauge Rufus River Murray 20.31 m 20/11/2018 7:45 Not measured Not measured 1651.0 ML/d20/11/2018 7:45 Not measured 154.3 μS/cm 20/11/2018 21:45 Not measured Full data
Weirs Steven's Weir Downstream Wakool 2.63 m 20/11/2018 21:45 3068 ML/Day 20/11/2018 21:45 Not measured Not measured 22.9°C 20/11/2018 21:45 39.2 μS/cm 20/11/2018 21:45 Not measured Full data
Weirs Steven's Weir Upstream Wakool 4.47 m 20/11/2018 7:45 Not measured Not measured Not measured Not measured Not measured Not measured Full data
River Gauge Stoney Crossing Murray 1.73 m 20/11/2018 21:45 1314 ML/Day 20/11/2018 21:45 Not measured 924.0 ML/d20/11/2018 7:45 23.2°C 20/11/2018 21:45 77.8 μS/cm 20/11/2018 21:45 Not measured Full data
River Gauge Swan Hill Murray 1.7 m 20/11/2018 21:45 9356 ML/Day 20/11/2018 21:45 Not measured Not measured 22.6°C 20/11/2018 21:45 69.7 μS/cm 20/11/2018 21:45 Not measured Full data
River Gauge Tallandoon Mitta 3.35 m 20/11/2018 21:30 9482 ML/Day 20/11/2018 21:30 Not measured Not measured 12.2°C 20/11/2018 20:45 35.6 μS/cm 20/11/2018 20:45 Not measured Full data
River Gauge Tauwitchere Barrage Murray 0.61 m 20/11/2018 21:45 Not measured Not measured Not measured Not measured Not measured Not measured Full data
River Gauge Tocumwal Murray 2.89 m 20/11/2018 21:45 14232 ML/Day 20/11/2018 21:45 Not measured Not measured 22.2°C 20/11/2018 21:45 51.4 μS/cm 20/11/2018 21:45 Not measured Full data
River Gauge Torrumbarry Headworks Murray 84.98 m 20/11/2018 21:45 Not measured Not measured 2047.8 ML/d20/11/2018 21:45 Not measured Not measured Not measured Full data
Weirs Torrumbarry Weir Downstream Murray 2.99 m 20/11/2018 21:45 9208 ML/Day 20/11/2018 21:45 Not measured Not measured 23.9°C 20/11/2018 21:45 54.8 μS/cm 20/11/2018 21:45 Not measured Full data
Weirs Torrumbarry Weir Upstream Murray 86.05 m 20/11/2018 21:30 Not measured 37 GL 20/11/2018 7:45 Not measured 24.0°C 20/11/2018 7:45 54.2 μS/cm 20/11/2018 7:45 0.0 mm 19/11/2018 9:00 Full data
River Gauge Wakool Canal Wakool 0.45 m 20/11/2018 21:45 Not measured Not measured 81.0 ML/d20/11/2018 8:45 Not measured Not measured Not measured Full data
River Gauge Wakool Junction Murray 3.97 m 20/11/2018 21:45 12066 ML/Day 20/11/2018 21:45 Not measured Not measured 22.7°C 20/11/2018 21:45 60.5 μS/cm 20/11/2018 21:45 Not measured Full data
River Gauge Weir 32 Upstream Darling 1.34 m 20/11/2018 21:45 198 ML/Day 20/11/2018 21:45 Not measured Not measured 24.8°C 20/11/2018 21:45 840.1 μS/cm 20/11/2018 21:45 Not measured Full data
Weirs Wentworth Weir Murray 27.77 m 20/11/2018 21:45 Not measured Not measured 8922.0 ML/d20/11/2018 7:45 Not measured 77.0 μS/cm 20/11/2018 7:45 0.0 mm 19/11/2018 9:00 Full data
River Gauge Wilcania Darling -0.26 m 20/11/2018 21:45 1 ML/Day 20/11/2018 21:45 Not measured Not measured 24.7°C 20/11/2018 22:00 0.0 μS/cm 20/11/2018 21:45 Not measured Full data
River Gauge Yarrawonga Main Channel Murray 123.38 m 20/11/2018 21:45 Not measured Not measured 413.7 ML/d20/11/2018 21:45 Not measured Not measured Not measured Full data
Weirs Yarrawonga Weir Downstream Murray 2.26 m 20/11/2018 22:30 14979 ML/Day 20/11/2018 22:30 Not measured Not measured 21.2°C 20/11/2018 22:30 86.0 μS/cm 20/11/2018 22:30 Not measured Full data
Weirs Yarrawonga Weir Upstream Murray 124.75 m 20/11/2018 21:45 Not measured Not measured Not measured Not measured Not measured 0.0 mm 20/11/2018 9:00 Full data